sensor_id;sensor_type;location;lat;lon;timestamp;P1;durP1;ratioP1;P2;durP2;ratioP2
13720;SDS011;6932;51.438;5.470;2023-01-29T00:00:05;22.40;;;14.27;;
13720;SDS011;6932;51.438;5.470;2023-01-29T00:02:34;22.63;;;14.00;;
13720;SDS011;6932;51.438;5.470;2023-01-29T00:05:01;22.07;;;14.33;;
13720;SDS011;6932;51.438;5.470;2023-01-29T00:07:29;22.33;;;14.23;;
13720;SDS011;6932;51.438;5.470;2023-01-29T00:09:55;20.50;;;13.23;;
13720;SDS011;6932;51.438;5.470;2023-01-29T00:12:21;22.57;;;14.13;;
13720;SDS011;6932;51.438;5.470;2023-01-29T00:14:47;22.77;;;13.70;;
13720;SDS011;6932;51.438;5.470;2023-01-29T00:17:13;22.67;;;14.00;;
13720;SDS011;6932;51.438;5.470;2023-01-29T00:19:39;21.87;;;13.97;;
13720;SDS011;6932;51.438;5.470;2023-01-29T00:22:05;24.53;;;14.03;;
13720;SDS011;6932;51.438;5.470;2023-01-29T00:24:30;22.67;;;14.07;;
13720;SDS011;6932;51.438;5.470;2023-01-29T00:26:56;22.00;;;13.90;;
13720;SDS011;6932;51.438;5.470;2023-01-29T00:29:22;22.50;;;14.43;;
13720;SDS011;6932;51.438;5.470;2023-01-29T00:31:48;22.47;;;14.30;;
13720;SDS011;6932;51.438;5.470;2023-01-29T00:34:13;22.07;;;14.37;;
13720;SDS011;6932;51.438;5.470;2023-01-29T00:36:39;21.77;;;13.70;;
13720;SDS011;6932;51.438;5.470;2023-01-29T00:39:05;23.73;;;14.67;;
13720;SDS011;6932;51.438;5.470;2023-01-29T00:41:34;22.70;;;14.30;;
13720;SDS011;6932;51.438;5.470;2023-01-29T00:44:20;23.00;;;14.27;;
13720;SDS011;6932;51.438;5.470;2023-01-29T00:47:04;22.63;;;14.13;;
13720;SDS011;6932;51.438;5.470;2023-01-29T00:49:54;22.90;;;13.87;;
13720;SDS011;6932;51.438;5.470;2023-01-29T00:52:21;22.37;;;13.33;;
13720;SDS011;6932;51.438;5.470;2023-01-29T00:54:48;23.73;;;14.00;;
13720;SDS011;6932;51.438;5.470;2023-01-29T00:57:14;25.33;;;14.97;;
13720;SDS011;6932;51.438;5.470;2023-01-29T00:59:40;23.17;;;14.40;;
13720;SDS011;6932;51.438;5.470;2023-01-29T01:02:05;22.77;;;14.23;;
13720;SDS011;6932;51.438;5.470;2023-01-29T01:04:50;21.57;;;13.37;;
13720;SDS011;6932;51.438;5.470;2023-01-29T01:07:15;22.77;;;14.43;;
13720;SDS011;6932;51.438;5.470;2023-01-29T01:09:41;22.27;;;14.07;;
13720;SDS011;6932;51.438;5.470;2023-01-29T01:12:26;26.23;;;14.70;;
13720;SDS011;6932;51.438;5.470;2023-01-29T01:14:52;22.50;;;14.07;;
13720;SDS011;6932;51.438;5.470;2023-01-29T01:17:18;24.40;;;14.97;;
13720;SDS011;6932;51.438;5.470;2023-01-29T01:19:44;23.97;;;14.93;;
13720;SDS011;6932;51.438;5.470;2023-01-29T01:22:10;25.10;;;15.20;;
13720;SDS011;6932;51.438;5.470;2023-01-29T01:24:36;24.97;;;15.73;;
13720;SDS011;6932;51.438;5.470;2023-01-29T01:27:02;24.47;;;14.70;;
13720;SDS011;6932;51.438;5.470;2023-01-29T01:29:28;24.23;;;14.70;;
13720;SDS011;6932;51.438;5.470;2023-01-29T01:31:54;23.93;;;15.27;;
13720;SDS011;6932;51.438;5.470;2023-01-29T01:34:20;25.47;;;14.77;;
13720;SDS011;6932;51.438;5.470;2023-01-29T01:36:46;24.13;;;15.20;;
13720;SDS011;6932;51.438;5.470;2023-01-29T01:39:12;25.40;;;15.03;;
13720;SDS011;6932;51.438;5.470;2023-01-29T01:41:38;24.53;;;15.23;;
13720;SDS011;6932;51.438;5.470;2023-01-29T01:44:04;26.70;;;15.53;;
13720;SDS011;6932;51.438;5.470;2023-01-29T01:46:31;26.13;;;15.87;;
13720;SDS011;6932;51.438;5.470;2023-01-29T01:51:43;24.10;;;15.13;;
13720;SDS011;6932;51.438;5.470;2023-01-29T01:54:19;23.90;;;14.67;;
13720;SDS011;6932;51.438;5.470;2023-01-29T01:56:57;24.43;;;15.07;;
13720;SDS011;6932;51.438;5.470;2023-01-29T01:59:40;24.07;;;14.80;;
13720;SDS011;6932;51.438;5.470;2023-01-29T02:02:12;22.60;;;14.43;;
13720;SDS011;6932;51.438;5.470;2023-01-29T02:04:58;24.13;;;15.17;;
13720;SDS011;6932;51.438;5.470;2023-01-29T02:07:44;24.17;;;14.90;;
13720;SDS011;6932;51.438;5.470;2023-01-29T02:10:34;24.20;;;14.77;;
13720;SDS011;6932;51.438;5.470;2023-01-29T02:13:11;23.67;;;15.27;;
13720;SDS011;6932;51.438;5.470;2023-01-29T02:15:40;23.10;;;14.60;;
13720;SDS011;6932;51.438;5.470;2023-01-29T02:18:10;25.40;;;15.77;;
13720;SDS011;6932;51.438;5.470;2023-01-29T02:20:38;23.73;;;15.07;;
13720;SDS011;6932;51.438;5.470;2023-01-29T02:29:06;23.17;;;14.30;;
13720;SDS011;6932;51.438;5.470;2023-01-29T02:32:00;24.00;;;15.10;;
13720;SDS011;6932;51.438;5.470;2023-01-29T02:34:50;25.47;;;15.60;;
13720;SDS011;6932;51.438;5.470;2023-01-29T02:38:33;24.33;;;14.63;;
13720;SDS011;6932;51.438;5.470;2023-01-29T02:40:42;23.57;;;14.33;;
13720;SDS011;6932;51.438;5.470;2023-01-29T02:43:29;25.73;;;15.83;;
13720;SDS011;6932;51.438;5.470;2023-01-29T02:48:42;25.50;;;16.07;;
13720;SDS011;6932;51.438;5.470;2023-01-29T02:51:33;24.40;;;14.63;;
13720;SDS011;6932;51.438;5.470;2023-01-29T02:54:16;26.47;;;16.47;;
13720;SDS011;6932;51.438;5.470;2023-01-29T02:56:54;26.00;;;15.40;;
13720;SDS011;6932;51.438;5.470;2023-01-29T02:59:30;25.50;;;16.07;;
13720;SDS011;6932;51.438;5.470;2023-01-29T03:02:14;26.17;;;15.93;;
13720;SDS011;6932;51.438;5.470;2023-01-29T03:04:51;25.33;;;16.30;;
13720;SDS011;6932;51.438;5.470;2023-01-29T03:07:26;23.67;;;15.37;;
13720;SDS011;6932;51.438;5.470;2023-01-29T03:10:09;25.20;;;15.57;;
13720;SDS011;6932;51.438;5.470;2023-01-29T03:13:05;26.73;;;15.87;;
13720;SDS011;6932;51.438;5.470;2023-01-29T03:16:00;25.00;;;15.77;;
13720;SDS011;6932;51.438;5.470;2023-01-29T03:18:50;26.10;;;15.53;;
13720;SDS011;6932;51.438;5.470;2023-01-29T03:21:30;27.03;;;15.77;;
13720;SDS011;6932;51.438;5.470;2023-01-29T03:24:16;24.13;;;15.47;;
13720;SDS011;6932;51.438;5.470;2023-01-29T03:27:09;24.97;;;15.80;;
13720;SDS011;6932;51.438;5.470;2023-01-29T03:29:57;25.93;;;16.73;;
13720;SDS011;6932;51.438;5.470;2023-01-29T03:32:44;24.30;;;15.70;;
13720;SDS011;6932;51.438;5.470;2023-01-29T03:35:13;25.70;;;16.37;;
13720;SDS011;6932;51.438;5.470;2023-01-29T03:37:59;26.20;;;16.57;;
13720;SDS011;6932;51.438;5.470;2023-01-29T03:40:28;26.10;;;16.07;;
13720;SDS011;6932;51.438;5.470;2023-01-29T03:43:04;26.80;;;16.60;;
13720;SDS011;6932;51.438;5.470;2023-01-29T03:49:34;24.80;;;15.33;;
13720;SDS011;6932;51.438;5.470;2023-01-29T03:52:25;24.00;;;14.33;;
13720;SDS011;6932;51.438;5.470;2023-01-29T03:57:58;25.50;;;15.40;;
13720;SDS011;6932;51.438;5.470;2023-01-29T04:00:53;24.30;;;15.13;;
13720;SDS011;6932;51.438;5.470;2023-01-29T04:06:10;24.47;;;15.30;;
13720;SDS011;6932;51.438;5.470;2023-01-29T04:08:54;23.37;;;15.03;;
13720;SDS011;6932;51.438;5.470;2023-01-29T04:11:28;24.87;;;15.20;;
13720;SDS011;6932;51.438;5.470;2023-01-29T04:13:55;23.07;;;13.97;;
13720;SDS011;6932;51.438;5.470;2023-01-29T04:16:30;23.90;;;15.00;;
13720;SDS011;6932;51.438;5.470;2023-01-29T04:19:03;23.37;;;15.20;;
13720;SDS011;6932;51.438;5.470;2023-01-29T04:21:30;22.97;;;14.83;;
13720;SDS011;6932;51.438;5.470;2023-01-29T04:23:56;23.47;;;14.80;;
13720;SDS011;6932;51.438;5.470;2023-01-29T04:29:32;24.53;;;15.03;;
13720;SDS011;6932;51.438;5.470;2023-01-29T04:35:10;24.00;;;14.57;;
13720;SDS011;6932;51.438;5.470;2023-01-29T04:41:07;23.53;;;14.77;;
13720;SDS011;6932;51.438;5.470;2023-01-29T04:52:08;23.10;;;14.80;;
13720;SDS011;6932;51.438;5.470;2023-01-29T04:54:49;23.93;;;14.37;;
13720;SDS011;6932;51.438;5.470;2023-01-29T04:57:19;23.87;;;14.73;;
13720;SDS011;6932;51.438;5.470;2023-01-29T04:59:57;22.27;;;14.17;;
13720;SDS011;6932;51.438;5.470;2023-01-29T05:02:35;23.33;;;14.50;;
13720;SDS011;6932;51.438;5.470;2023-01-29T05:05:04;23.23;;;14.53;;
13720;SDS011;6932;51.438;5.470;2023-01-29T05:07:32;23.87;;;14.60;;
13720;SDS011;6932;51.438;5.470;2023-01-29T05:10:06;23.87;;;15.47;;
13720;SDS011;6932;51.438;5.470;2023-01-29T05:12:34;26.03;;;15.10;;
13720;SDS011;6932;51.438;5.470;2023-01-29T05:15:03;22.23;;;14.30;;
13720;SDS011;6932;51.438;5.470;2023-01-29T05:17:35;23.93;;;15.03;;
13720;SDS011;6932;51.438;5.470;2023-01-29T05:20:01;23.20;;;14.40;;
13720;SDS011;6932;51.438;5.470;2023-01-29T05:22:27;23.27;;;14.73;;
13720;SDS011;6932;51.438;5.470;2023-01-29T05:24:54;23.57;;;14.60;;
13720;SDS011;6932;51.438;5.470;2023-01-29T05:27:22;22.87;;;14.37;;
13720;SDS011;6932;51.438;5.470;2023-01-29T05:30:16;25.03;;;15.03;;
13720;SDS011;6932;51.438;5.470;2023-01-29T05:32:42;24.40;;;14.87;;
13720;SDS011;6932;51.438;5.470;2023-01-29T05:35:08;24.63;;;15.23;;
13720;SDS011;6932;51.438;5.470;2023-01-29T05:37:34;23.27;;;14.90;;
13720;SDS011;6932;51.438;5.470;2023-01-29T05:40:00;24.33;;;15.23;;
13720;SDS011;6932;51.438;5.470;2023-01-29T05:42:25;25.67;;;16.00;;
13720;SDS011;6932;51.438;5.470;2023-01-29T05:44:51;25.03;;;15.10;;
13720;SDS011;6932;51.438;5.470;2023-01-29T05:47:18;23.60;;;14.70;;
13720;SDS011;6932;51.438;5.470;2023-01-29T05:49:44;25.77;;;15.77;;
13720;SDS011;6932;51.438;5.470;2023-01-29T05:52:10;23.47;;;14.50;;
13720;SDS011;6932;51.438;5.470;2023-01-29T05:54:36;25.23;;;15.63;;
13720;SDS011;6932;51.438;5.470;2023-01-29T05:57:02;21.73;;;13.83;;
13720;SDS011;6932;51.438;5.470;2023-01-29T05:59:27;24.70;;;14.63;;
13720;SDS011;6932;51.438;5.470;2023-01-29T06:01:55;25.57;;;15.20;;
13720;SDS011;6932;51.438;5.470;2023-01-29T06:04:24;23.77;;;14.53;;
13720;SDS011;6932;51.438;5.470;2023-01-29T06:06:49;23.63;;;14.63;;
13720;SDS011;6932;51.438;5.470;2023-01-29T06:09:15;23.50;;;14.37;;
13720;SDS011;6932;51.438;5.470;2023-01-29T06:11:41;24.40;;;15.40;;
13720;SDS011;6932;51.438;5.470;2023-01-29T06:14:07;23.87;;;15.30;;
13720;SDS011;6932;51.438;5.470;2023-01-29T06:16:32;24.73;;;15.20;;
13720;SDS011;6932;51.438;5.470;2023-01-29T06:18:58;23.73;;;14.23;;
13720;SDS011;6932;51.438;5.470;2023-01-29T06:21:24;24.27;;;15.17;;
13720;SDS011;6932;51.438;5.470;2023-01-29T06:23:51;23.60;;;14.77;;
13720;SDS011;6932;51.438;5.470;2023-01-29T06:26:17;24.30;;;15.00;;
13720;SDS011;6932;51.438;5.470;2023-01-29T06:28:43;26.17;;;16.03;;
13720;SDS011;6932;51.438;5.470;2023-01-29T06:31:13;25.20;;;15.80;;
13720;SDS011;6932;51.438;5.470;2023-01-29T06:33:39;22.47;;;14.83;;
13720;SDS011;6932;51.438;5.470;2023-01-29T06:36:05;24.87;;;15.03;;
13720;SDS011;6932;51.438;5.470;2023-01-29T06:38:31;24.07;;;15.03;;
13720;SDS011;6932;51.438;5.470;2023-01-29T06:40:57;24.33;;;14.60;;
13720;SDS011;6932;51.438;5.470;2023-01-29T06:43:23;24.30;;;15.10;;
13720;SDS011;6932;51.438;5.470;2023-01-29T06:45:50;24.30;;;15.03;;
13720;SDS011;6932;51.438;5.470;2023-01-29T06:48:21;24.77;;;15.10;;
13720;SDS011;6932;51.438;5.470;2023-01-29T06:50:48;23.13;;;14.60;;
13720;SDS011;6932;51.438;5.470;2023-01-29T06:53:15;24.13;;;15.30;;
13720;SDS011;6932;51.438;5.470;2023-01-29T06:55:42;23.87;;;15.00;;
13720;SDS011;6932;51.438;5.470;2023-01-29T06:58:15;24.40;;;15.33;;
13720;SDS011;6932;51.438;5.470;2023-01-29T07:00:41;24.63;;;14.50;;
13720;SDS011;6932;51.438;5.470;2023-01-29T07:03:07;24.47;;;15.77;;
13720;SDS011;6932;51.438;5.470;2023-01-29T07:05:34;26.63;;;16.00;;
13720;SDS011;6932;51.438;5.470;2023-01-29T07:08:01;23.70;;;14.90;;
13720;SDS011;6932;51.438;5.470;2023-01-29T07:10:26;24.67;;;15.90;;
13720;SDS011;6932;51.438;5.470;2023-01-29T07:12:52;23.00;;;14.57;;
13720;SDS011;6932;51.438;5.470;2023-01-29T07:15:18;23.63;;;15.33;;
13720;SDS011;6932;51.438;5.470;2023-01-29T07:17:55;24.23;;;15.80;;
13720;SDS011;6932;51.438;5.470;2023-01-29T07:20:23;27.17;;;16.47;;
13720;SDS011;6932;51.438;5.470;2023-01-29T07:22:51;25.50;;;15.63;;
13720;SDS011;6932;51.438;5.470;2023-01-29T07:25:17;25.33;;;15.57;;
13720;SDS011;6932;51.438;5.470;2023-01-29T07:27:42;24.70;;;15.87;;
13720;SDS011;6932;51.438;5.470;2023-01-29T07:30:08;25.20;;;15.33;;
13720;SDS011;6932;51.438;5.470;2023-01-29T07:32:36;26.97;;;16.30;;
13720;SDS011;6932;51.438;5.470;2023-01-29T07:35:02;25.07;;;16.50;;
13720;SDS011;6932;51.438;5.470;2023-01-29T07:37:27;23.77;;;15.30;;
13720;SDS011;6932;51.438;5.470;2023-01-29T07:39:53;24.93;;;16.10;;
13720;SDS011;6932;51.438;5.470;2023-01-29T07:42:19;23.93;;;15.30;;
13720;SDS011;6932;51.438;5.470;2023-01-29T07:44:44;25.47;;;15.43;;
13720;SDS011;6932;51.438;5.470;2023-01-29T07:47:10;24.07;;;15.00;;
13720;SDS011;6932;51.438;5.470;2023-01-29T07:49:36;23.30;;;15.10;;
13720;SDS011;6932;51.438;5.470;2023-01-29T07:52:02;24.80;;;15.60;;
13720;SDS011;6932;51.438;5.470;2023-01-29T07:54:28;26.97;;;16.37;;
13720;SDS011;6932;51.438;5.470;2023-01-29T07:56:55;27.10;;;16.80;;
13720;SDS011;6932;51.438;5.470;2023-01-29T07:59:20;25.93;;;15.60;;
13720;SDS011;6932;51.438;5.470;2023-01-29T08:01:46;25.77;;;15.57;;
13720;SDS011;6932;51.438;5.470;2023-01-29T08:04:12;24.57;;;15.60;;
13720;SDS011;6932;51.438;5.470;2023-01-29T08:06:38;24.33;;;15.97;;
13720;SDS011;6932;51.438;5.470;2023-01-29T08:09:03;26.00;;;15.97;;
13720;SDS011;6932;51.438;5.470;2023-01-29T08:11:29;26.27;;;16.67;;
13720;SDS011;6932;51.438;5.470;2023-01-29T08:13:55;23.20;;;15.13;;
13720;SDS011;6932;51.438;5.470;2023-01-29T08:16:21;25.13;;;15.77;;
13720;SDS011;6932;51.438;5.470;2023-01-29T08:18:47;25.83;;;15.70;;
13720;SDS011;6932;51.438;5.470;2023-01-29T08:21:13;25.30;;;16.17;;
13720;SDS011;6932;51.438;5.470;2023-01-29T08:23:39;25.20;;;15.83;;
13720;SDS011;6932;51.438;5.470;2023-01-29T08:26:05;25.77;;;16.07;;
13720;SDS011;6932;51.438;5.470;2023-01-29T08:28:31;24.80;;;15.53;;
13720;SDS011;6932;51.438;5.470;2023-01-29T08:30:57;24.47;;;15.77;;
13720;SDS011;6932;51.438;5.470;2023-01-29T08:33:23;23.80;;;15.27;;
13720;SDS011;6932;51.438;5.470;2023-01-29T08:35:51;24.70;;;16.30;;
13720;SDS011;6932;51.438;5.470;2023-01-29T08:38:17;24.00;;;15.30;;
13720;SDS011;6932;51.438;5.470;2023-01-29T08:40:43;23.73;;;15.03;;
13720;SDS011;6932;51.438;5.470;2023-01-29T08:43:09;23.40;;;14.93;;
13720;SDS011;6932;51.438;5.470;2023-01-29T08:45:38;24.00;;;15.60;;
13720;SDS011;6932;51.438;5.470;2023-01-29T08:48:07;24.63;;;15.70;;
13720;SDS011;6932;51.438;5.470;2023-01-29T08:50:33;23.93;;;15.50;;
13720;SDS011;6932;51.438;5.470;2023-01-29T08:53:00;25.00;;;15.97;;
13720;SDS011;6932;51.438;5.470;2023-01-29T08:55:29;23.77;;;15.63;;
13720;SDS011;6932;51.438;5.470;2023-01-29T08:57:55;23.40;;;15.43;;
13720;SDS011;6932;51.438;5.470;2023-01-29T09:00:23;23.80;;;15.33;;
13720;SDS011;6932;51.438;5.470;2023-01-29T09:02:49;25.23;;;15.83;;
13720;SDS011;6932;51.438;5.470;2023-01-29T09:05:15;21.93;;;14.33;;
13720;SDS011;6932;51.438;5.470;2023-01-29T09:07:41;23.33;;;14.87;;
13720;SDS011;6932;51.438;5.470;2023-01-29T09:10:07;23.43;;;14.90;;
13720;SDS011;6932;51.438;5.470;2023-01-29T09:12:33;22.70;;;14.63;;
13720;SDS011;6932;51.438;5.470;2023-01-29T09:14:59;23.37;;;14.67;;
13720;SDS011;6932;51.438;5.470;2023-01-29T09:17:24;25.03;;;15.03;;
13720;SDS011;6932;51.438;5.470;2023-01-29T09:19:50;24.23;;;15.00;;
13720;SDS011;6932;51.438;5.470;2023-01-29T09:22:17;27.37;;;15.07;;
13720;SDS011;6932;51.438;5.470;2023-01-29T09:24:43;24.57;;;15.40;;
13720;SDS011;6932;51.438;5.470;2023-01-29T09:27:09;24.20;;;15.57;;
13720;SDS011;6932;51.438;5.470;2023-01-29T09:29:35;23.93;;;15.63;;
13720;SDS011;6932;51.438;5.470;2023-01-29T09:32:02;22.70;;;14.67;;
13720;SDS011;6932;51.438;5.470;2023-01-29T09:34:28;24.13;;;15.40;;
13720;SDS011;6932;51.438;5.470;2023-01-29T09:36:54;23.80;;;15.40;;
13720;SDS011;6932;51.438;5.470;2023-01-29T09:39:20;24.60;;;15.97;;
13720;SDS011;6932;51.438;5.470;2023-01-29T09:41:50;22.13;;;14.83;;
13720;SDS011;6932;51.438;5.470;2023-01-29T09:47:08;23.07;;;14.63;;
13720;SDS011;6932;51.438;5.470;2023-01-29T09:49:44;26.30;;;15.23;;
13720;SDS011;6932;51.438;5.470;2023-01-29T09:52:25;22.97;;;14.33;;
13720;SDS011;6932;51.438;5.470;2023-01-29T09:55:13;24.50;;;15.33;;
13720;SDS011;6932;51.438;5.470;2023-01-29T09:57:59;22.70;;;15.10;;
13720;SDS011;6932;51.438;5.470;2023-01-29T10:14:59;24.17;;;14.67;;
13720;SDS011;6932;51.438;5.470;2023-01-29T10:17:47;23.60;;;14.53;;
13720;SDS011;6932;51.438;5.470;2023-01-29T10:23:39;22.70;;;14.67;;
13720;SDS011;6932;51.438;5.470;2023-01-29T10:26:22;22.10;;;14.10;;
13720;SDS011;6932;51.438;5.470;2023-01-29T10:28:53;23.90;;;14.40;;
13720;SDS011;6932;51.438;5.470;2023-01-29T10:31:29;21.97;;;13.80;;
13720;SDS011;6932;51.438;5.470;2023-01-29T10:34:40;21.90;;;14.50;;
13720;SDS011;6932;51.438;5.470;2023-01-29T10:36:51;21.90;;;14.17;;
13720;SDS011;6932;51.438;5.470;2023-01-29T10:39:24;22.23;;;14.40;;
13720;SDS011;6932;51.438;5.470;2023-01-29T10:44:37;20.70;;;13.70;;
13720;SDS011;6932;51.438;5.470;2023-01-29T10:53:23;22.93;;;14.03;;
13720;SDS011;6932;51.438;5.470;2023-01-29T10:59:31;21.30;;;13.97;;
13720;SDS011;6932;51.438;5.470;2023-01-29T11:02:13;21.30;;;13.83;;
13720;SDS011;6932;51.438;5.470;2023-01-29T11:04:43;21.00;;;13.37;;
13720;SDS011;6932;51.438;5.470;2023-01-29T11:07:10;20.03;;;12.93;;
13720;SDS011;6932;51.438;5.470;2023-01-29T11:09:51;21.33;;;13.47;;
13720;SDS011;6932;51.438;5.470;2023-01-29T11:12:29;22.07;;;13.70;;
13720;SDS011;6932;51.438;5.470;2023-01-29T11:18:00;20.53;;;13.60;;
13720;SDS011;6932;51.438;5.470;2023-01-29T11:20:29;22.70;;;13.57;;
13720;SDS011;6932;51.438;5.470;2023-01-29T11:22:57;21.33;;;14.03;;
13720;SDS011;6932;51.438;5.470;2023-01-29T11:25:24;21.87;;;13.63;;
13720;SDS011;6932;51.438;5.470;2023-01-29T11:27:54;21.20;;;13.67;;
13720;SDS011;6932;51.438;5.470;2023-01-29T11:30:31;22.03;;;14.30;;
13720;SDS011;6932;51.438;5.470;2023-01-29T11:33:18;22.10;;;14.33;;
13720;SDS011;6932;51.438;5.470;2023-01-29T11:35:47;22.43;;;14.00;;
13720;SDS011;6932;51.438;5.470;2023-01-29T11:40:51;20.90;;;13.07;;
13720;SDS011;6932;51.438;5.470;2023-01-29T11:43:28;20.93;;;13.67;;
13720;SDS011;6932;51.438;5.470;2023-01-29T11:45:59;21.87;;;14.63;;
13720;SDS011;6932;51.438;5.470;2023-01-29T11:51:20;21.40;;;14.27;;
13720;SDS011;6932;51.438;5.470;2023-01-29T11:54:05;22.33;;;14.07;;
13720;SDS011;6932;51.438;5.470;2023-01-29T11:56:42;22.80;;;14.30;;
13720;SDS011;6932;51.438;5.470;2023-01-29T12:02:24;21.50;;;14.00;;
13720;SDS011;6932;51.438;5.470;2023-01-29T12:05:15;21.77;;;13.80;;
13720;SDS011;6932;51.438;5.470;2023-01-29T12:07:45;22.87;;;14.80;;
13720;SDS011;6932;51.438;5.470;2023-01-29T12:10:37;23.53;;;15.10;;
13720;SDS011;6932;51.438;5.470;2023-01-29T12:15:38;21.97;;;14.53;;
13720;SDS011;6932;51.438;5.470;2023-01-29T12:21:15;22.10;;;14.00;;
13720;SDS011;6932;51.438;5.470;2023-01-29T12:29:51;20.63;;;13.40;;
13720;SDS011;6932;51.438;5.470;2023-01-29T12:32:48;19.73;;;13.27;;
13720;SDS011;6932;51.438;5.470;2023-01-29T12:35:48;23.07;;;13.53;;
13720;SDS011;6932;51.438;5.470;2023-01-29T12:38:21;20.87;;;13.37;;
13720;SDS011;6932;51.438;5.470;2023-01-29T12:40:56;20.53;;;13.33;;
13720;SDS011;6932;51.438;5.470;2023-01-29T12:43:58;20.80;;;12.83;;
13720;SDS011;6932;51.438;5.470;2023-01-29T12:46:45;22.07;;;14.20;;
13720;SDS011;6932;51.438;5.470;2023-01-29T12:49:19;21.33;;;13.67;;
13720;SDS011;6932;51.438;5.470;2023-01-29T12:59:54;19.47;;;13.00;;
13720;SDS011;6932;51.438;5.470;2023-01-29T13:02:34;19.53;;;12.77;;
13720;SDS011;6932;51.438;5.470;2023-01-29T13:05:23;20.23;;;13.10;;
13720;SDS011;6932;51.438;5.470;2023-01-29T13:08:01;21.47;;;13.77;;
13720;SDS011;6932;51.438;5.470;2023-01-29T13:10:36;19.03;;;12.73;;
13720;SDS011;6932;51.438;5.470;2023-01-29T13:16:27;22.03;;;13.33;;
13720;SDS011;6932;51.438;5.470;2023-01-29T13:19:06;21.23;;;14.17;;
13720;SDS011;6932;51.438;5.470;2023-01-29T13:21:42;21.67;;;13.87;;
13720;SDS011;6932;51.438;5.470;2023-01-29T13:24:11;20.27;;;13.60;;
13720;SDS011;6932;51.438;5.470;2023-01-29T13:26:45;20.67;;;13.83;;
13720;SDS011;6932;51.438;5.470;2023-01-29T13:29:20;21.60;;;13.93;;
13720;SDS011;6932;51.438;5.470;2023-01-29T13:31:50;20.37;;;13.57;;
13720;SDS011;6932;51.438;5.470;2023-01-29T13:34:22;23.07;;;14.43;;
13720;SDS011;6932;51.438;5.470;2023-01-29T13:37:00;20.67;;;13.60;;
13720;SDS011;6932;51.438;5.470;2023-01-29T13:39:44;21.43;;;14.13;;
13720;SDS011;6932;51.438;5.470;2023-01-29T13:44:47;19.60;;;13.07;;
13720;SDS011;6932;51.438;5.470;2023-01-29T13:47:23;19.03;;;13.07;;
13720;SDS011;6932;51.438;5.470;2023-01-29T13:52:29;21.60;;;13.90;;
13720;SDS011;6932;51.438;5.470;2023-01-29T13:58:00;22.30;;;14.23;;
13720;SDS011;6932;51.438;5.470;2023-01-29T14:07:54;21.57;;;14.67;;
13720;SDS011;6932;51.438;5.470;2023-01-29T14:10:25;21.00;;;13.67;;
13720;SDS011;6932;51.438;5.470;2023-01-29T14:18:25;19.37;;;13.10;;
13720;SDS011;6932;51.438;5.470;2023-01-29T14:20:57;20.93;;;13.83;;
13720;SDS011;6932;51.438;5.470;2023-01-29T14:23:43;21.83;;;13.90;;
13720;SDS011;6932;51.438;5.470;2023-01-29T14:27:01;20.67;;;13.40;;
13720;SDS011;6932;51.438;5.470;2023-01-29T14:31:47;21.80;;;14.03;;
13720;SDS011;6932;51.438;5.470;2023-01-29T14:36:49;21.40;;;13.77;;
13720;SDS011;6932;51.438;5.470;2023-01-29T14:39:26;21.77;;;14.57;;
13720;SDS011;6932;51.438;5.470;2023-01-29T14:50:00;21.40;;;13.67;;
13720;SDS011;6932;51.438;5.470;2023-01-29T14:52:47;21.67;;;13.57;;
13720;SDS011;6932;51.438;5.470;2023-01-29T14:55:23;20.43;;;13.13;;
13720;SDS011;6932;51.438;5.470;2023-01-29T14:57:59;19.97;;;13.17;;
13720;SDS011;6932;51.438;5.470;2023-01-29T15:00:29;20.43;;;13.60;;
13720;SDS011;6932;51.438;5.470;2023-01-29T15:03:00;20.23;;;13.77;;
13720;SDS011;6932;51.438;5.470;2023-01-29T15:05:36;19.70;;;13.03;;
13720;SDS011;6932;51.438;5.470;2023-01-29T15:08:25;20.00;;;13.00;;
13720;SDS011;6932;51.438;5.470;2023-01-29T15:11:03;18.83;;;12.27;;
13720;SDS011;6932;51.438;5.470;2023-01-29T15:19:43;21.83;;;13.87;;
13720;SDS011;6932;51.438;5.470;2023-01-29T15:22:15;20.57;;;13.17;;
13720;SDS011;6932;51.438;5.470;2023-01-29T15:24:46;20.27;;;12.10;;
13720;SDS011;6932;51.438;5.470;2023-01-29T15:27:47;20.83;;;13.90;;
13720;SDS011;6932;51.438;5.470;2023-01-29T15:30:19;20.33;;;13.80;;
13720;SDS011;6932;51.438;5.470;2023-01-29T15:32:55;21.80;;;14.07;;
13720;SDS011;6932;51.438;5.470;2023-01-29T15:37:59;21.10;;;12.97;;
13720;SDS011;6932;51.438;5.470;2023-01-29T15:40:38;21.47;;;13.63;;
13720;SDS011;6932;51.438;5.470;2023-01-29T15:43:16;20.77;;;13.17;;
13720;SDS011;6932;51.438;5.470;2023-01-29T15:45:54;21.60;;;13.73;;
13720;SDS011;6932;51.438;5.470;2023-01-29T15:48:36;22.40;;;14.03;;
13720;SDS011;6932;51.438;5.470;2023-01-29T15:51:05;19.70;;;12.53;;
13720;SDS011;6932;51.438;5.470;2023-01-29T15:54:09;20.80;;;13.73;;
13720;SDS011;6932;51.438;5.470;2023-01-29T15:56:35;18.33;;;12.30;;
13720;SDS011;6932;51.438;5.470;2023-01-29T15:59:05;20.63;;;13.13;;
13720;SDS011;6932;51.438;5.470;2023-01-29T16:01:41;20.20;;;12.40;;
13720;SDS011;6932;51.438;5.470;2023-01-29T16:04:08;19.10;;;12.47;;
13720;SDS011;6932;51.438;5.470;2023-01-29T16:06:41;18.70;;;12.47;;
13720;SDS011;6932;51.438;5.470;2023-01-29T16:09:09;19.13;;;11.83;;
13720;SDS011;6932;51.438;5.470;2023-01-29T16:11:45;18.13;;;12.00;;
13720;SDS011;6932;51.438;5.470;2023-01-29T16:14:13;20.67;;;12.93;;
13720;SDS011;6932;51.438;5.470;2023-01-29T16:16:43;20.00;;;12.57;;
13720;SDS011;6932;51.438;5.470;2023-01-29T16:19:12;18.90;;;12.20;;
13720;SDS011;6932;51.438;5.470;2023-01-29T16:21:49;19.57;;;12.40;;
13720;SDS011;6932;51.438;5.470;2023-01-29T16:24:25;19.17;;;12.13;;
13720;SDS011;6932;51.438;5.470;2023-01-29T16:26:58;18.80;;;12.47;;
13720;SDS011;6932;51.438;5.470;2023-01-29T16:29:36;18.23;;;12.13;;
13720;SDS011;6932;51.438;5.470;2023-01-29T16:32:03;18.77;;;11.50;;
13720;SDS011;6932;51.438;5.470;2023-01-29T16:34:37;18.83;;;12.50;;
13720;SDS011;6932;51.438;5.470;2023-01-29T16:37:15;18.13;;;11.27;;
13720;SDS011;6932;51.438;5.470;2023-01-29T16:39:50;18.83;;;12.07;;
13720;SDS011;6932;51.438;5.470;2023-01-29T16:47:37;19.20;;;11.70;;
13720;SDS011;6932;51.438;5.470;2023-01-29T16:52:55;18.10;;;11.60;;
13720;SDS011;6932;51.438;5.470;2023-01-29T16:55:41;19.50;;;12.33;;
13720;SDS011;6932;51.438;5.470;2023-01-29T16:58:14;18.80;;;11.40;;
13720;SDS011;6932;51.438;5.470;2023-01-29T17:00:46;18.03;;;11.40;;
13720;SDS011;6932;51.438;5.470;2023-01-29T17:03:17;18.30;;;11.63;;
13720;SDS011;6932;51.438;5.470;2023-01-29T17:05:44;18.80;;;11.57;;
13720;SDS011;6932;51.438;5.470;2023-01-29T17:10:53;18.90;;;12.43;;
13720;SDS011;6932;51.438;5.470;2023-01-29T17:13:22;17.70;;;11.77;;
13720;SDS011;6932;51.438;5.470;2023-01-29T17:16:02;17.43;;;11.47;;
13720;SDS011;6932;51.438;5.470;2023-01-29T17:18:44;17.97;;;11.53;;
13720;SDS011;6932;51.438;5.470;2023-01-29T17:21:09;18.27;;;11.77;;
13720;SDS011;6932;51.438;5.470;2023-01-29T17:23:35;18.37;;;12.40;;
13720;SDS011;6932;51.438;5.470;2023-01-29T17:26:01;16.90;;;10.93;;
13720;SDS011;6932;51.438;5.470;2023-01-29T17:28:30;16.77;;;10.73;;
13720;SDS011;6932;51.438;5.470;2023-01-29T17:30:57;18.00;;;11.03;;
13720;SDS011;6932;51.438;5.470;2023-01-29T17:33:24;15.77;;;10.60;;
13720;SDS011;6932;51.438;5.470;2023-01-29T17:35:50;16.77;;;10.83;;
13720;SDS011;6932;51.438;5.470;2023-01-29T17:38:17;16.83;;;10.63;;
13720;SDS011;6932;51.438;5.470;2023-01-29T17:43:47;15.77;;;10.30;;
13720;SDS011;6932;51.438;5.470;2023-01-29T17:46:13;18.20;;;10.90;;